Time;durP1;ratioP1;P1;durP2;ratioP2;P2;SDS_P1;SDS_P2;PMS_P1;PMS_P2;Temp;Humidity;BMP_temperature;BMP_pressure;BME280_temperature;BME280_humidity;BME280_pressure;Samples;Min_cycle;Max_cycle;Signal;HPM_P1;HPM_P2
2024/01/15 00:01:06;;;;;;;8.38;6.22;;;;;;;;;;5091004;28;20028;-73
2024/01/15 00:03:32;;;;;;;10.18;8.70;;;;;;;;;;5089682;28;20050;-73
2024/01/15 00:05:58;;;;;;;7.38;6.63;;;;;;;;;;5089874;28;20027;-73
2024/01/15 00:08:24;;;;;;;10.73;7.18;;;;;;;;;;5107914;28;20527;-74
2024/01/15 00:10:50;;;;;;;8.02;7.22;;;;;;;;;;5089611;28;20034;-74
2024/01/15 00:13:16;;;;;;;6.78;6.07;;;;;;;;;;5108180;28;20028;-74
2024/01/15 00:15:43;;;;;;;11.73;8.82;;;;;;;;;;5107799;28;20031;-74
2024/01/15 00:18:09;;;;;;;7.57;6.25;;;;;;;;;;5089634;28;20032;-73
2024/01/15 00:20:35;;;;;;;7.80;6.32;;;;;;;;;;5109333;28;20040;-73
2024/01/15 00:23:01;;;;;;;7.47;6.10;;;;;;;;;;5092239;28;20601;-74
2024/01/15 00:25:27;;;;;;;12.00;8.27;;;;;;;;;;5110986;28;20033;-73
2024/01/15 00:27:53;;;;;;;8.50;7.05;;;;;;;;;;5091903;28;20100;-73
2024/01/15 00:30:19;;;;;;;7.07;6.43;;;;;;;;;;5090445;28;20122;-73
2024/01/15 00:32:45;;;;;;;6.55;6.05;;;;;;;;;;5112188;28;20122;-74
2024/01/15 00:35:11;;;;;;;7.93;7.20;;;;;;;;;;5112287;28;20039;-73
2024/01/15 00:37:37;;;;;;;7.05;6.35;;;;;;;;;;5111708;28;20071;-73
2024/01/15 00:40:04;;;;;;;7.82;7.03;;;;;;;;;;5111663;28;20084;-74
2024/01/15 00:42:29;;;;;;;7.78;7.05;;;;;;;;;;5112121;28;20032;-74
2024/01/15 00:44:55;;;;;;;10.30;8.48;;;;;;;;;;5076989;28;20434;-75
2024/01/15 00:47:21;;;;;;;8.38;7.57;;;;;;;;;;5112141;28;20807;-75
2024/01/15 00:49:48;;;;;;;8.57;7.70;;;;;;;;;;5093319;28;20042;-75
2024/01/15 00:52:14;;;;;;;8.68;7.78;;;;;;;;;;5112614;28;20035;-74
2024/01/15 00:54:40;;;;;;;9.65;8.80;;;;;;;;;;5111881;28;20104;-75
2024/01/15 00:57:05;;;;;;;11.10;9.18;;;;;;;;;;5112154;28;20035;-75
2024/01/15 00:59:31;;;;;;;12.40;9.05;;;;;;;;;;5112069;28;20118;-76
2024/01/15 01:01:57;;;;;;;11.80;7.35;;;;;;;;;;5112086;28;20039;-75
2024/01/15 01:04:23;;;;;;;6.82;6.22;;;;;;;;;;5072406;28;20036;-76
2024/01/15 01:06:49;;;;;;;9.02;8.13;;;;;;;;;;5091419;28;20070;-77
2024/01/15 01:09:15;;;;;;;15.35;8.30;;;;;;;;;;5073409;28;20044;-76
2024/01/15 01:11:41;;;;;;;8.82;7.95;;;;;;;;;;5091110;28;20031;-76
2024/01/15 01:14:07;;;;;;;7.35;6.30;;;;;;;;;;5073258;28;20036;-75
2024/01/15 01:16:38;;;;;;;8.88;8.02;;;;;;;;;;5090828;28;20688;-75
2024/01/15 01:19:06;;;;;;;8.00;7.15;;;;;;;;;;5090795;28;20032;-75
2024/01/15 01:21:32;;;;;;;9.38;6.57;;;;;;;;;;5090836;28;20569;-74
2024/01/15 01:23:58;;;;;;;9.38;6.93;;;;;;;;;;5073831;28;20071;-77
2024/01/15 01:26:24;;;;;;;11.32;8.25;;;;;;;;;;5090764;28;20043;-74
2024/01/15 01:28:50;;;;;;;7.45;6.60;;;;;;;;;;5090734;28;20028;-75
2024/01/15 01:31:16;;;;;;;12.38;10.98;;;;;;;;;;5091330;28;20119;-75
2024/01/15 01:33:42;;;;;;;7.78;7.03;;;;;;;;;;5078245;28;20092;-76
2024/01/15 01:36:09;;;;;;;6.93;6.35;;;;;;;;;;5104867;28;20032;-76
2024/01/15 01:38:35;;;;;;;9.27;8.43;;;;;;;;;;5093588;28;20568;-75
2024/01/15 01:41:01;;;;;;;9.55;6.65;;;;;;;;;;5090297;28;20685;-75
2024/01/15 01:43:27;;;;;;;14.13;8.77;;;;;;;;;;5089953;28;20126;-74
2024/01/15 01:45:54;;;;;;;8.55;7.03;;;;;;;;;;5070949;28;20139;-75
2024/01/15 01:48:20;;;;;;;8.63;6.78;;;;;;;;;;5071700;28;20036;-75
2024/01/15 01:50:46;;;;;;;8.43;6.78;;;;;;;;;;5071006;28;20036;-75
2024/01/15 01:53:13;;;;;;;6.90;6.25;;;;;;;;;;5055154;28;20641;-75
2024/01/15 01:55:38;;;;;;;8.85;6.35;;;;;;;;;;5089378;28;20047;-75
2024/01/15 01:58:04;;;;;;;6.05;5.45;;;;;;;;;;5071363;28;20039;-74
2024/01/15 02:00:30;;;;;;;8.45;7.57;;;;;;;;;;5089623;28;20056;-74
2024/01/15 02:02:56;;;;;;;8.63;7.70;;;;;;;;;;5071350;28;20048;-75
2024/01/15 02:05:22;;;;;;;7.38;6.57;;;;;;;;;;5090534;28;20043;-76
2024/01/15 02:07:47;;;;;;;9.00;6.47;;;;;;;;;;5090075;28;20047;-77
2024/01/15 02:10:13;;;;;;;12.38;8.23;;;;;;;;;;5090847;28;20031;-76
2024/01/15 02:12:39;;;;;;;10.02;9.02;;;;;;;;;;5078731;28;20035;-76
2024/01/15 02:15:05;;;;;;;9.23;8.23;;;;;;;;;;5078700;28;20052;-75
2024/01/15 02:17:34;;;;;;;7.05;6.35;;;;;;;;;;5097392;28;20317;-77
2024/01/15 02:20:00;;;;;;;10.85;7.45;;;;;;;;;;5066974;28;20028;-77
2024/01/15 02:22:26;;;;;;;6.97;6.38;;;;;;;;;;5108523;28;20041;-78
2024/01/15 02:24:52;;;;;;;9.57;7.10;;;;;;;;;;5090754;28;20031;-78
2024/01/15 02:27:20;;;;;;;7.57;6.85;;;;;;;;;;5100745;28;20024;-78
2024/01/15 02:29:46;;;;;;;11.60;9.85;;;;;;;;;;5076136;28;20039;-76
2024/01/15 02:32:12;;;;;;;5.82;5.32;;;;;;;;;;5099299;28;20058;-79
2024/01/15 02:34:38;;;;;;;5.85;5.35;;;;;;;;;;5087900;28;20032;-78
2024/01/15 02:37:04;;;;;;;9.27;6.43;;;;;;;;;;5103652;28;20044;-78
2024/01/15 02:39:30;;;;;;;7.55;6.65;;;;;;;;;;5103277;28;20036;-79
2024/01/15 02:41:57;;;;;;;9.43;8.45;;;;;;;;;;5085249;28;20057;-79
2024/01/15 02:44:23;;;;;;;10.70;6.57;;;;;;;;;;5102743;28;20056;-79
2024/01/15 02:46:49;;;;;;;9.70;7.03;;;;;;;;;;5104553;28;20097;-79
2024/01/15 02:49:16;;;;;;;10.73;7.30;;;;;;;;;;5102379;28;20032;-79
2024/01/15 02:51:41;;;;;;;8.65;6.85;;;;;;;;;;5096422;28;20070;-80
2024/01/15 02:54:07;;;;;;;10.45;6.03;;;;;;;;;;5094271;28;20036;-80
2024/01/15 02:56:33;;;;;;;8.35;7.65;;;;;;;;;;5064951;28;20052;-78
2024/01/15 02:58:59;;;;;;;8.80;7.47;;;;;;;;;;5088074;28;20063;-79
2024/01/15 03:01:26;;;;;;;7.13;6.30;;;;;;;;;;5092784;28;20027;-78
2024/01/15 03:03:52;;;;;;;8.52;6.43;;;;;;;;;;5120756;28;20065;-78
2024/01/15 03:06:18;;;;;;;7.88;7.07;;;;;;;;;;5121288;28;20028;-78
2024/01/15 03:08:44;;;;;;;10.45;7.93;;;;;;;;;;5107204;28;20032;-77
2024/01/15 03:11:10;;;;;;;10.95;7.07;;;;;;;;;;5122852;28;20035;-80
2024/01/15 03:13:37;;;;;;;11.43;8.23;;;;;;;;;;5104013;28;20117;-78
2024/01/15 03:16:04;;;;;;;9.13;7.85;;;;;;;;;;5105479;28;20027;-78
2024/01/15 03:18:30;;;;;;;16.17;10.50;;;;;;;;;;5106476;28;20032;-78
2024/01/15 03:20:56;;;;;;;13.77;9.35;;;;;;;;;;5111722;28;20032;-80
2024/01/15 03:23:21;;;;;;;15.27;8.93;;;;;;;;;;5136570;27;20050;-78
2024/01/15 03:25:47;;;;;;;10.43;9.45;;;;;;;;;;5123175;28;20282;-77
2024/01/15 03:28:13;;;;;;;9.05;8.02;;;;;;;;;;5132820;27;20039;-77
2024/01/15 03:30:39;;;;;;;10.35;8.70;;;;;;;;;;5140730;27;20027;-78
2024/01/15 03:33:04;;;;;;;9.95;8.77;;;;;;;;;;5116649;28;20494;-77
2024/01/15 03:35:30;;;;;;;7.45;6.75;;;;;;;;;;5111064;28;20036;-78
2024/01/15 03:37:56;;;;;;;11.77;9.70;;;;;;;;;;5075324;28;20156;-77
2024/01/15 03:40:22;;;;;;;9.77;8.02;;;;;;;;;;5112511;28;20129;-77
2024/01/15 03:42:48;;;;;;;9.63;8.63;;;;;;;;;;5093252;28;20081;-77
2024/01/15 03:45:14;;;;;;;9.25;8.35;;;;;;;;;;5110798;28;20649;-77
2024/01/15 03:47:40;;;;;;;9.18;8.07;;;;;;;;;;5091657;28;20039;-77
2024/01/15 03:50:06;;;;;;;11.75;9.25;;;;;;;;;;5111942;28;20652;-77
2024/01/15 03:52:32;;;;;;;11.20;10.00;;;;;;;;;;5131014;28;20031;-77
2024/01/15 03:54:58;;;;;;;12.63;10.57;;;;;;;;;;5129425;28;20023;-75
2024/01/15 03:57:24;;;;;;;14.45;10.20;;;;;;;;;;5111226;28;20027;-76
2024/01/15 03:59:50;;;;;;;8.68;7.78;;;;;;;;;;5095364;28;20082;-77
2024/01/15 04:02:16;;;;;;;9.70;7.82;;;;;;;;;;5113990;28;20031;-76
2024/01/15 04:04:42;;;;;;;12.73;9.63;;;;;;;;;;5087175;27;20035;-77
2024/01/15 04:07:09;;;;;;;10.15;8.55;;;;;;;;;;5126721;27;20035;-77
2024/01/15 04:09:34;;;;;;;13.73;12.30;;;;;;;;;;5113693;28;20027;-77
2024/01/15 04:12:00;;;;;;;9.85;8.00;;;;;;;;;;5114337;28;20085;-76
2024/01/15 04:14:26;;;;;;;10.02;8.95;;;;;;;;;;5113440;28;20036;-75
2024/01/15 04:16:52;;;;;;;9.98;8.85;;;;;;;;;;5095339;28;20066;-77
2024/01/15 04:19:18;;;;;;;8.55;7.65;;;;;;;;;;5114360;28;20088;-76
2024/01/15 04:21:44;;;;;;;13.65;10.35;;;;;;;;;;5112837;28;20127;-74
2024/01/15 04:24:10;;;;;;;10.25;9.25;;;;;;;;;;5094764;28;20046;-75
2024/01/15 04:26:36;;;;;;;11.10;9.48;;;;;;;;;;5112111;28;20533;-74
2024/01/15 04:29:01;;;;;;;10.52;9.50;;;;;;;;;;5111012;28;20046;-74
2024/01/15 04:31:27;;;;;;;9.70;8.80;;;;;;;;;;5111618;28;20036;-76
2024/01/15 04:33:53;;;;;;;13.20;10.38;;;;;;;;;;5076550;28;20652;-74
2024/01/15 04:36:19;;;;;;;12.18;9.77;;;;;;;;;;5100819;28;20035;-75
2024/01/15 04:38:45;;;;;;;12.93;11.57;;;;;;;;;;5086429;28;20032;-76
2024/01/15 04:41:14;;;;;;;11.23;10.10;;;;;;;;;;5121124;28;20039;-75
2024/01/15 04:43:40;;;;;;;11.43;9.75;;;;;;;;;;5086233;28;20059;-75
2024/01/15 04:46:06;;;;;;;11.43;10.27;;;;;;;;;;5121209;28;20542;-74
2024/01/15 04:48:32;;;;;;;9.73;8.65;;;;;;;;;;5123505;28;20039;-75
2024/01/15 04:50:58;;;;;;;15.10;9.95;;;;;;;;;;5119690;28;20039;-75
2024/01/15 04:53:24;;;;;;;14.30;10.20;;;;;;;;;;5111440;28;20126;-75
2024/01/15 04:55:50;;;;;;;14.25;10.50;;;;;;;;;;5110264;28;20039;-76
2024/01/15 04:58:16;;;;;;;10.50;9.40;;;;;;;;;;5093889;28;20077;-74
2024/01/15 05:00:42;;;;;;;12.48;10.23;;;;;;;;;;5113179;28;20035;-75
2024/01/15 05:03:08;;;;;;;11.25;9.98;;;;;;;;;;5114201;28;20050;-76
2024/01/15 05:05:34;;;;;;;13.23;10.05;;;;;;;;;;5111937;28;20063;-76
2024/01/15 05:08:00;;;;;;;18.30;12.60;;;;;;;;;;5109849;28;20109;-75
2024/01/15 05:10:26;;;;;;;12.48;9.65;;;;;;;;;;5093402;28;20126;-75
2024/01/15 05:12:52;;;;;;;13.65;11.55;;;;;;;;;;5111760;28;20092;-75
2024/01/15 05:15:18;;;;;;;14.77;12.30;;;;;;;;;;5110586;28;20035;-75
2024/01/15 05:17:44;;;;;;;11.55;10.38;;;;;;;;;;5113749;28;20036;-77
2024/01/15 05:20:10;;;;;;;11.80;10.43;;;;;;;;;;5128222;28;20037;-75
2024/01/15 05:22:36;;;;;;;13.23;10.95;;;;;;;;;;5111900;28;20442;-75
2024/01/15 05:25:02;;;;;;;18.50;13.38;;;;;;;;;;5109952;28;20035;-74
2024/01/15 05:27:29;;;;;;;12.77;11.40;;;;;;;;;;5110464;28;20031;-75
2024/01/15 05:29:55;;;;;;;12.68;11.32;;;;;;;;;;5110443;28;20597;-75
2024/01/15 05:32:21;;;;;;;12.20;10.82;;;;;;;;;;5110831;28;20047;-74
2024/01/15 05:34:47;;;;;;;12.48;11.20;;;;;;;;;;5110058;28;20032;-74
2024/01/15 05:37:13;;;;;;;12.75;11.38;;;;;;;;;;5108940;28;20042;-75
2024/01/15 05:39:39;;;;;;;13.63;11.77;;;;;;;;;;5110072;28;20046;-77
2024/01/15 05:42:05;;;;;;;11.43;10.23;;;;;;;;;;5090747;28;20023;-75
2024/01/15 05:44:31;;;;;;;10.57;9.57;;;;;;;;;;5075109;28;20063;-75
2024/01/15 05:46:57;;;;;;;17.50;13.32;;;;;;;;;;5073382;28;20024;-74
2024/01/15 05:49:22;;;;;;;9.80;8.80;;;;;;;;;;5109039;27;20038;-75
2024/01/15 05:51:49;;;;;;;11.55;10.43;;;;;;;;;;5130268;27;20031;-75
2024/01/15 05:54:15;;;;;;;13.75;9.73;;;;;;;;;;5111925;27;20027;-76
2024/01/15 05:56:41;;;;;;;14.45;10.85;;;;;;;;;;5099454;28;20067;-77
2024/01/15 05:59:07;;;;;;;11.95;10.77;;;;;;;;;;5091031;28;20032;-77
2024/01/15 06:01:36;;;;;;;19.80;10.48;;;;;;;;;;5110400;28;20558;-78
2024/01/15 06:04:02;;;;;;;9.82;8.68;;;;;;;;;;5090129;27;20623;-77
2024/01/15 06:06:28;;;;;;;13.57;10.43;;;;;;;;;;5111209;28;20035;-76
2024/01/15 06:08:53;;;;;;;11.40;10.35;;;;;;;;;;5078730;28;20028;-77
2024/01/15 06:11:22;;;;;;;11.43;10.27;;;;;;;;;;5095801;28;20677;-78
2024/01/15 06:13:48;;;;;;;19.13;15.18;;;;;;;;;;5094308;28;20043;-78
2024/01/15 06:16:15;;;;;;;18.40;12.93;;;;;;;;;;5078930;28;20469;-78
2024/01/15 06:18:41;;;;;;;15.40;11.38;;;;;;;;;;5096196;28;20042;-77
2024/01/15 06:21:07;;;;;;;11.52;9.90;;;;;;;;;;5061884;28;20118;-78
2024/01/15 06:23:32;;;;;;;16.23;14.05;;;;;;;;;;5094511;28;20086;-79
2024/01/15 06:25:58;;;;;;;16.02;11.50;;;;;;;;;;5064605;28;20131;-79
2024/01/15 06:28:24;;;;;;;17.20;13.05;;;;;;;;;;5115983;28;20741;-79
2024/01/15 06:30:50;;;;;;;13.02;9.38;;;;;;;;;;5096260;28;20035;-78
2024/01/15 06:33:16;;;;;;;12.52;11.23;;;;;;;;;;5125764;28;20039;-78
2024/01/15 06:35:42;;;;;;;12.30;9.38;;;;;;;;;;5120341;28;20022;-78
2024/01/15 06:38:08;;;;;;;21.23;14.27;;;;;;;;;;5095529;28;20050;-79
2024/01/15 06:40:34;;;;;;;11.20;9.80;;;;;;;;;;5119227;28;20471;-79
2024/01/15 06:43:00;;;;;;;19.45;15.20;;;;;;;;;;5131220;27;20035;-80
2024/01/15 06:45:26;;;;;;;17.40;11.57;;;;;;;;;;5111816;28;20656;-80
2024/01/15 06:47:52;;;;;;;17.95;14.80;;;;;;;;;;5097845;28;20034;-79
2024/01/15 06:50:18;;;;;;;12.05;10.77;;;;;;;;;;5127588;28;20020;-79
2024/01/15 06:52:44;;;;;;;18.35;14.40;;;;;;;;;;5109116;28;20045;-80
2024/01/15 06:55:10;;;;;;;17.45;13.90;;;;;;;;;;5105902;28;20070;-79
2024/01/15 06:57:35;;;;;;;17.70;12.65;;;;;;;;;;5118777;28;20043;-78
2024/01/15 07:00:02;;;;;;;19.50;12.48;;;;;;;;;;5121095;27;20076;-77
2024/01/15 07:02:29;;;;;;;19.50;15.65;;;;;;;;;;5073580;28;20129;-77
2024/01/15 07:04:55;;;;;;;20.15;15.95;;;;;;;;;;5107977;28;20475;-76
2024/01/15 07:07:20;;;;;;;16.67;12.00;;;;;;;;;;5097350;28;20042;-76
2024/01/15 07:09:46;;;;;;;16.90;13.05;;;;;;;;;;5114098;27;20036;-78
2024/01/15 07:12:31;;;;;;;18.80;14.95;;;;;;;;;;5110823;28;20060;-78
2024/01/15 07:14:57;;;;;;;22.65;16.52;;;;;;;;;;5121024;28;20043;-77
2024/01/15 07:17:23;;;;;;;24.15;17.17;;;;;;;;;;5098443;28;20119;-78
2024/01/15 07:19:48;;;;;;;19.52;15.10;;;;;;;;;;5121213;28;20114;-78
2024/01/15 07:22:17;;;;;;;18.23;14.80;;;;;;;;;;5098164;28;20072;-80
2024/01/15 07:24:43;;;;;;;33.42;22.50;;;;;;;;;;5093241;28;20040;-80
2024/01/15 07:27:09;;;;;;;13.63;11.35;;;;;;;;;;5092140;28;20561;-80
2024/01/15 07:29:38;;;;;;;16.50;11.02;;;;;;;;;;5095402;28;20050;-80
2024/01/15 07:32:04;;;;;;;26.40;18.05;;;;;;;;;;5069349;28;20027;-80
2024/01/15 07:34:30;;;;;;;19.20;14.82;;;;;;;;;;5112276;28;20095;-77
2024/01/15 07:36:57;;;;;;;27.08;13.25;;;;;;;;;;5094850;28;20028;-79
2024/01/15 07:39:24;;;;;;;18.17;12.70;;;;;;;;;;5092740;28;20035;-78
2024/01/15 07:41:50;;;;;;;23.00;18.33;;;;;;;;;;5098030;28;20506;-78
2024/01/15 07:44:17;;;;;;;13.65;11.48;;;;;;;;;;5108305;28;20052;-75
2024/01/15 07:46:46;;;;;;;23.27;17.80;;;;;;;;;;5112258;28;20544;-79
2024/01/15 07:49:12;;;;;;;15.43;10.93;;;;;;;;;;5112984;27;20055;-77
2024/01/15 07:51:40;;;;;;;24.70;18.50;;;;;;;;;;5095951;28;20127;-79
2024/01/15 07:54:06;;;;;;;19.05;12.27;;;;;;;;;;5097594;28;20042;-77
2024/01/15 07:56:32;;;;;;;25.27;18.70;;;;;;;;;;5094506;28;20040;-78
2024/01/15 07:58:57;;;;;;;17.52;14.30;;;;;;;;;;5110401;28;20518;-79
2024/01/15 08:01:23;;;;;;;18.27;15.05;;;;;;;;;;5093246;27;20048;-78
2024/01/15 08:03:49;;;;;;;15.70;12.15;;;;;;;;;;5104738;28;20050;-79
2024/01/15 08:06:15;;;;;;;27.83;18.27;;;;;;;;;;5081594;27;20031;-80
2024/01/15 08:08:40;;;;;;;11.88;9.45;;;;;;;;;;5099389;28;20036;-80
2024/01/15 08:11:06;;;;;;;16.35;12.65;;;;;;;;;;5079072;28;20873;-79
2024/01/15 08:13:32;;;;;;;22.90;18.05;;;;;;;;;;5115656;28;20104;-80
2024/01/15 08:15:58;;;;;;;16.00;13.60;;;;;;;;;;5096683;28;20028;-80
2024/01/15 08:18:25;;;;;;;19.52;12.88;;;;;;;;;;5119674;27;20077;-81
2024/01/15 08:20:52;;;;;;;19.63;13.77;;;;;;;;;;5134134;27;20040;-79
2024/01/15 08:23:17;;;;;;;25.15;19.92;;;;;;;;;;5134268;27;20074;-78
2024/01/15 08:25:43;;;;;;;26.33;21.35;;;;;;;;;;5116256;27;20069;-79
2024/01/15 08:28:09;;;;;;;22.52;15.85;;;;;;;;;;5134842;27;20031;-79
2024/01/15 08:30:35;;;;;;;12.77;11.48;;;;;;;;;;5117238;27;20039;-79
2024/01/15 08:33:01;;;;;;;14.63;12.57;;;;;;;;;;5119176;27;20031;-80
2024/01/15 08:35:27;;;;;;;14.68;11.27;;;;;;;;;;5119984;27;20038;-79
2024/01/15 08:37:53;;;;;;;15.55;12.98;;;;;;;;;;5137223;27;20039;-80
2024/01/15 08:40:19;;;;;;;14.27;11.02;;;;;;;;;;5136397;27;20039;-80
2024/01/15 08:42:48;;;;;;;14.27;11.35;;;;;;;;;;5132500;27;20030;-80
2024/01/15 08:45:14;;;;;;;20.85;13.73;;;;;;;;;;5115914;28;20060;-80
2024/01/15 08:47:41;;;;;;;21.52;16.50;;;;;;;;;;5115380;28;20544;-79
2024/01/15 08:50:10;;;;;;;17.80;13.90;;;;;;;;;;5115580;28;20024;-80
2024/01/15 08:52:37;;;;;;;18.48;15.65;;;;;;;;;;5114404;28;20159;-79
2024/01/15 08:55:04;;;;;;;18.50;14.93;;;;;;;;;;5098747;28;20114;-80
2024/01/15 08:57:30;;;;;;;16.60;13.48;;;;;;;;;;5116088;28;20044;-80
2024/01/15 08:59:56;;;;;;;23.85;16.77;;;;;;;;;;5117690;28;20036;-80
2024/01/15 09:02:22;;;;;;;12.48;11.27;;;;;;;;;;5120591;28;20096;-80
2024/01/15 09:04:48;;;;;;;19.33;15.25;;;;;;;;;;5129010;27;20039;-78
2024/01/15 09:07:14;;;;;;;18.15;14.25;;;;;;;;;;5129464;28;20035;-81
2024/01/15 09:09:42;;;;;;;18.50;15.80;;;;;;;;;;5105909;28;20019;-79
2024/01/15 09:12:08;;;;;;;17.08;12.25;;;;;;;;;;5117818;28;20032;-80
2024/01/15 09:14:34;;;;;;;17.00;12.43;;;;;;;;;;5101330;28;20054;-80
2024/01/15 09:17:00;;;;;;;19.55;14.35;;;;;;;;;;5100285;28;20499;-81
2024/01/15 09:19:26;;;;;;;18.27;10.50;;;;;;;;;;5116525;28;20080;-80
2024/01/15 09:21:51;;;;;;;18.10;12.80;;;;;;;;;;5095994;28;20047;-79
2024/01/15 09:24:18;;;;;;;23.42;16.63;;;;;;;;;;5095065;28;20043;-80
2024/01/15 09:26:44;;;;;;;16.67;15.13;;;;;;;;;;5113994;28;20046;-80
2024/01/15 09:29:10;;;;;;;22.13;19.05;;;;;;;;;;5078966;28;20062;-79
2024/01/15 09:31:36;;;;;;;18.90;14.50;;;;;;;;;;5113641;28;20288;-79
2024/01/15 09:34:22;;;;;;;12.57;11.27;;;;;;;;;;5078605;28;20035;-80
2024/01/15 09:36:48;;;;;;;15.88;11.60;;;;;;;;;;5061248;28;20048;-80
2024/01/15 09:39:15;;;;;;;13.98;11.23;;;;;;;;;;5094904;28;20051;-79
2024/01/15 09:41:41;;;;;;;13.43;10.68;;;;;;;;;;5093940;28;20032;-79
2024/01/15 09:44:10;;;;;;;22.35;15.32;;;;;;;;;;5112213;28;20048;-78
2024/01/15 09:46:36;;;;;;;20.23;14.88;;;;;;;;;;5094535;28;20452;-80
2024/01/15 09:49:02;;;;;;;12.27;11.00;;;;;;;;;;5094471;28;20035;-79
2024/01/15 09:51:31;;;;;;;15.75;11.95;;;;;;;;;;5077883;28;20118;-79
2024/01/15 09:57:13;;;;;;;14.35;11.93;;;;;;;;;;5076369;28;20039;-79
2024/01/15 09:59:45;;;;;;;17.95;15.02;;;;;;;;;;5061526;28;20039;-80
2024/01/15 10:02:18;;;;;;;15.05;13.40;;;;;;;;;;5077431;28;20035;-79
2024/01/15 10:04:54;;;;;;;17.65;14.02;;;;;;;;;;5059400;28;20055;-79
2024/01/15 10:07:24;;;;;;;18.27;16.25;;;;;;;;;;5078876;28;20035;-80
2024/01/15 10:09:53;;;;;;;11.68;10.57;;;;;;;;;;5061013;28;20035;-78
2024/01/15 10:12:24;;;;;;;10.80;9.32;;;;;;;;;;5075015;28;20131;-81
2024/01/15 10:14:50;;;;;;;12.63;10.40;;;;;;;;;;5111343;28;20035;-80
2024/01/15 10:17:17;;;;;;;14.32;11.65;;;;;;;;;;5093564;28;20511;-78
2024/01/15 10:19:53;;;;;;;20.98;15.98;;;;;;;;;;5064578;28;20528;-80
2024/01/15 10:22:19;;;;;;;12.48;11.23;;;;;;;;;;5112767;28;20539;-79
2024/01/15 10:24:46;;;;;;;20.60;17.40;;;;;;;;;;5112413;28;20051;-80
2024/01/15 10:27:12;;;;;;;21.90;15.20;;;;;;;;;;5111237;28;20031;-79
2024/01/15 10:29:38;;;;;;;11.52;10.48;;;;;;;;;;5111449;28;20096;-80
2024/01/15 10:32:08;;;;;;;12.20;10.95;;;;;;;;;;5092606;28;20048;-80
2024/01/15 10:34:37;;;;;;;20.90;14.65;;;;;;;;;;5112104;28;20104;-80
2024/01/15 10:37:03;;;;;;;16.88;14.80;;;;;;;;;;5076866;28;20032;-80
2024/01/15 10:39:29;;;;;;;16.05;11.48;;;;;;;;;;5093938;28;20558;-79
2024/01/15 10:41:55;;;;;;;13.88;12.05;;;;;;;;;;5100471;28;20513;-78
2024/01/15 10:44:21;;;;;;;13.13;11.45;;;;;;;;;;5118834;28;20051;-80
2024/01/15 10:46:47;;;;;;;17.75;14.88;;;;;;;;;;5110992;28;20115;-77
2024/01/15 10:49:13;;;;;;;16.77;14.07;;;;;;;;;;5098842;27;20023;-78
2024/01/15 10:51:39;;;;;;;12.88;9.88;;;;;;;;;;5093047;27;20063;-78
2024/01/15 10:54:05;;;;;;;18.10;13.95;;;;;;;;;;5094721;28;20052;-76
2024/01/15 10:56:31;;;;;;;15.80;11.40;;;;;;;;;;5088942;28;20043;-78
2024/01/15 10:58:57;;;;;;;12.00;10.80;;;;;;;;;;5119418;28;20080;-78
2024/01/15 11:01:23;;;;;;;12.00;10.63;;;;;;;;;;5069638;28;20067;-78
2024/01/15 11:03:49;;;;;;;11.45;9.90;;;;;;;;;;5089226;28;20511;-79
2024/01/15 11:06:21;;;;;;;15.93;13.02;;;;;;;;;;5090991;28;20043;-79
2024/01/15 11:08:53;;;;;;;14.65;12.65;;;;;;;;;;5089909;28;20443;-77
2024/01/15 11:11:23;;;;;;;11.43;9.30;;;;;;;;;;5090224;28;20031;-78
2024/01/15 11:13:51;;;;;;;13.45;12.05;;;;;;;;;;5107455;28;20085;-79
2024/01/15 11:16:17;;;;;;;12.32;9.45;;;;;;;;;;5072085;28;20031;-77
2024/01/15 11:18:44;;;;;;;17.63;13.70;;;;;;;;;;5089572;28;20036;-78
2024/01/15 11:21:16;;;;;;;12.63;10.75;;;;;;;;;;5089484;28;20434;-79
2024/01/15 11:23:42;;;;;;;12.02;10.75;;;;;;;;;;5108123;28;20051;-76
2024/01/15 11:26:28;;;;;;;12.70;11.40;;;;;;;;;;5073585;28;20051;-77
2024/01/15 11:28:54;;;;;;;10.82;9.68;;;;;;;;;;5074321;28;20556;-78
2024/01/15 11:31:20;;;;;;;15.13;12.80;;;;;;;;;;5090668;28;20032;-79
2024/01/15 11:33:49;;;;;;;11.68;9.82;;;;;;;;;;5073620;28;20035;-80
2024/01/15 11:36:15;;;;;;;13.60;11.07;;;;;;;;;;5089603;28;20579;-81
2024/01/15 11:38:41;;;;;;;14.63;12.98;;;;;;;;;;5092344;28;20035;-79
2024/01/15 11:41:14;;;;;;;9.25;8.05;;;;;;;;;;5091865;28;20043;-81
2024/01/15 11:43:40;;;;;;;14.23;12.60;;;;;;;;;;5112210;28;20043;-78
2024/01/15 11:46:06;;;;;;;14.95;13.45;;;;;;;;;;5083492;28;20669;-78
2024/01/15 11:48:34;;;;;;;11.30;10.20;;;;;;;;;;5083375;28;20082;-78
2024/01/15 11:51:00;;;;;;;16.75;14.27;;;;;;;;;;5050540;28;20028;-79
2024/01/15 11:53:34;;;;;;;18.25;16.35;;;;;;;;;;5084254;28;20043;-78
2024/01/15 11:56:01;;;;;;;13.48;9.98;;;;;;;;;;5050711;28;20032;-77
2024/01/15 11:58:27;;;;;;;9.13;8.23;;;;;;;;;;5084229;28;20059;-78
2024/01/15 12:00:54;;;;;;;18.48;14.93;;;;;;;;;;5086253;28;20161;-79
2024/01/15 12:03:23;;;;;;;13.20;10.93;;;;;;;;;;5085665;28;20179;-78
2024/01/15 12:05:51;;;;;;;;;;;;;;;;;;5070178;28;20038;-78
2024/01/15 12:08:27;;;;;;;11.07;9.88;;;;;;;;;;5086837;28;19994;-78
2024/01/15 12:10:53;;;;;;;15.32;13.38;;;;;;;;;;5087310;28;20142;-77
2024/01/15 12:13:19;;;;;;;12.38;9.73;;;;;;;;;;5086555;28;20032;-78
2024/01/15 12:15:45;;;;;;;11.88;9.23;;;;;;;;;;5087500;28;20036;-77
2024/01/15 12:18:14;;;;;;;11.73;9.27;;;;;;;;;;5087179;28;20068;-77
2024/01/15 12:20:42;;;;;;;9.50;8.60;;;;;;;;;;5069020;28;20040;-79
2024/01/15 12:23:08;;;;;;;14.20;11.02;;;;;;;;;;5086897;28;20040;-77
2024/01/15 12:25:34;;;;;;;16.33;11.20;;;;;;;;;;5088109;28;20381;-77
2024/01/15 12:28:00;;;;;;;16.58;13.52;;;;;;;;;;5056663;28;20170;-79
2024/01/15 12:30:26;;;;;;;13.25;10.57;;;;;;;;;;5074489;28;20032;-77
2024/01/15 12:32:52;;;;;;;15.48;11.48;;;;;;;;;;5089904;28;20032;-74
2024/01/15 12:35:18;;;;;;;12.80;8.98;;;;;;;;;;5094558;28;20028;-80
2024/01/15 12:37:46;;;;;;;14.50;10.85;;;;;;;;;;5096069;28;20043;-75
2024/01/15 12:40:12;;;;;;;14.40;12.02;;;;;;;;;;5103061;28;20066;-78
2024/01/15 12:42:39;;;;;;;9.90;8.18;;;;;;;;;;5103233;28;20036;-78
2024/01/15 12:45:08;;;;;;;12.25;10.57;;;;;;;;;;5114021;27;20067;-74
2024/01/15 12:47:34;;;;;;;10.90;9.80;;;;;;;;;;5121294;27;20035;-77
2024/01/15 12:50:00;;;;;;;16.08;12.00;;;;;;;;;;5102532;28;20036;-77
2024/01/15 12:52:26;;;;;;;12.45;10.85;;;;;;;;;;5131612;27;20031;-75
2024/01/15 12:54:52;;;;;;;12.82;10.23;;;;;;;;;;5104187;27;20107;-76
2024/01/15 12:57:18;;;;;;;11.27;9.55;;;;;;;;;;5104648;28;20039;-77
2024/01/15 12:59:45;;;;;;;16.98;13.77;;;;;;;;;;5100434;27;20027;-76
2024/01/15 13:02:11;;;;;;;19.25;13.55;;;;;;;;;;5120592;27;20057;-76
2024/01/15 13:04:37;;;;;;;10.73;9.73;;;;;;;;;;5082965;27;20043;-76
2024/01/15 13:07:03;;;;;;;14.07;9.50;;;;;;;;;;5121133;27;20119;-76
2024/01/15 13:09:29;;;;;;;15.38;11.30;;;;;;;;;;5086088;27;20148;-77
2024/01/15 13:11:55;;;;;;;12.43;10.50;;;;;;;;;;5119882;27;20024;-76
2024/01/15 13:14:21;;;;;;;10.23;8.13;;;;;;;;;;5084612;27;20057;-76
2024/01/15 13:16:48;;;;;;;8.20;7.30;;;;;;;;;;5089791;27;20027;-75
2024/01/15 13:19:14;;;;;;;12.48;11.00;;;;;;;;;;5131814;27;20027;-76
2024/01/15 13:21:40;;;;;;;12.27;11.00;;;;;;;;;;5087354;27;20077;-77
2024/01/15 13:24:06;;;;;;;16.70;13.20;;;;;;;;;;5102787;27;20063;-80
2024/01/15 13:26:32;;;;;;;14.75;8.77;;;;;;;;;;5108488;27;20068;-80
2024/01/15 13:29:03;;;;;;;11.98;10.63;;;;;;;;;;5108384;27;20032;-79
2024/01/15 13:31:29;;;;;;;11.55;9.25;;;;;;;;;;5090627;27;20271;-78
2024/01/15 13:33:55;;;;;;;22.42;17.02;;;;;;;;;;5111047;27;20032;-77
2024/01/15 13:36:31;;;;;;;12.25;11.05;;;;;;;;;;5090669;27;20120;-78
2024/01/15 13:38:58;;;;;;;15.00;12.05;;;;;;;;;;5088634;27;20038;-78
2024/01/15 13:41:27;;;;;;;10.82;8.90;;;;;;;;;;5103600;27;20023;-77
2024/01/15 13:43:53;;;;;;;12.65;11.13;;;;;;;;;;5077130;28;20048;-77
2024/01/15 13:46:19;;;;;;;12.40;10.75;;;;;;;;;;5115098;27;20028;-79
2024/01/15 13:48:45;;;;;;;11.32;10.25;;;;;;;;;;5120568;27;20035;-78
2024/01/15 13:51:12;;;;;;;15.68;11.20;;;;;;;;;;5082569;27;20114;-79
2024/01/15 13:53:38;;;;;;;14.20;11.05;;;;;;;;;;5119209;27;20121;-79
2024/01/15 13:56:07;;;;;;;11.75;9.80;;;;;;;;;;5065705;28;20036;-82
2024/01/15 13:58:33;;;;;;;11.00;8.50;;;;;;;;;;5138791;27;20032;-82
2024/01/15 14:01:03;;;;;;;15.10;11.57;;;;;;;;;;5138168;27;20036;-81
2024/01/15 14:03:48;;;;;;;12.20;10.77;;;;;;;;;;5080944;28;20088;-80
2024/01/15 14:06:14;;;;;;;11.43;10.32;;;;;;;;;;5094047;28;20031;-79
2024/01/15 14:08:40;;;;;;;13.85;10.38;;;;;;;;;;5114182;28;20650;-80
2024/01/15 14:11:06;;;;;;;13.55;11.75;;;;;;;;;;5114731;28;20031;-79
2024/01/15 14:13:33;;;;;;;11.63;8.18;;;;;;;;;;5114294;28;20565;-80
2024/01/15 14:16:00;;;;;;;13.15;11.75;;;;;;;;;;5077754;28;20035;-80
2024/01/15 14:18:26;;;;;;;12.07;10.38;;;;;;;;;;5112884;28;20036;-79
2024/01/15 14:20:53;;;;;;;15.15;9.48;;;;;;;;;;5115951;28;20031;-80
2024/01/15 14:23:20;;;;;;;17.45;12.23;;;;;;;;;;5095211;28;20733;-80
2024/01/15 14:25:46;;;;;;;15.10;10.52;;;;;;;;;;5096922;28;20027;-80